createdAt,value
2023-04-04T00:01:33.978Z,99.90
2023-04-04T00:06:36.502Z,99.90
2023-04-04T00:11:38.506Z,99.90
2023-04-04T00:16:40.480Z,99.90
2023-04-04T00:21:42.188Z,99.90
2023-04-04T00:26:43.981Z,99.90
2023-04-04T00:31:45.860Z,99.90
2023-04-04T00:36:47.801Z,99.90
2023-04-04T00:41:50.422Z,99.90
2023-04-04T00:46:53.048Z,99.90
2023-04-04T00:51:55.371Z,99.90
2023-04-04T00:56:58.201Z,99.90
2023-04-04T01:02:01.214Z,99.90
2023-04-04T01:07:03.728Z,99.90
2023-04-04T01:12:05.817Z,99.90
2023-04-04T01:17:08.119Z,99.90
2023-04-04T01:22:10.998Z,99.90
2023-04-04T01:27:13.473Z,99.90
2023-04-04T01:32:20.996Z,99.90
2023-04-04T01:37:37.544Z,99.90
2023-04-04T01:42:41.253Z,99.90
2023-04-04T01:47:43.907Z,99.90
2023-04-04T01:52:45.740Z,99.90
2023-04-04T01:57:48.082Z,99.90
2023-04-04T02:02:49.942Z,99.90
2023-04-04T02:07:51.812Z,99.90
2023-04-04T02:12:53.554Z,99.90
2023-04-04T02:17:55.320Z,99.90
2023-04-04T02:22:57.648Z,99.90
2023-04-04T02:27:59.463Z,99.90
2023-04-04T02:33:01.374Z,99.90
2023-04-04T02:38:03.152Z,99.90
2023-04-04T02:43:05.231Z,99.90
2023-04-04T02:48:07.657Z,99.90
2023-04-04T02:53:09.459Z,99.90
2023-04-04T02:58:11.265Z,99.90
2023-04-04T03:03:13.088Z,99.90
2023-04-04T03:08:15.154Z,99.90
2023-04-04T03:13:17.203Z,99.90
2023-04-04T03:18:19.139Z,99.90
2023-04-04T03:23:20.968Z,99.90
2023-04-04T03:28:23.197Z,99.90
2023-04-04T03:33:24.940Z,99.90
2023-04-04T03:38:26.646Z,99.90
2023-04-04T03:43:28.433Z,99.90
2023-04-04T03:48:30.727Z,99.90
2023-04-04T03:53:32.484Z,99.90
2023-04-04T03:58:36.355Z,99.90
2023-04-04T04:03:38.113Z,99.90
2023-04-04T04:08:39.831Z,99.90
2023-04-04T04:13:41.541Z,99.90
2023-04-04T04:18:43.356Z,99.90
2023-04-04T04:23:45.412Z,99.90
2023-04-04T04:28:48.339Z,99.90
2023-04-04T04:33:50.057Z,99.90
2023-04-04T04:38:51.862Z,99.90
2023-04-04T04:43:53.660Z,99.90
2023-04-04T04:48:55.579Z,99.90
2023-04-04T04:53:57.387Z,99.90
2023-04-04T04:58:59.164Z,99.90
2023-04-04T05:04:01.280Z,99.90
2023-04-04T05:09:03.031Z,99.90
2023-04-04T05:14:05.369Z,99.90
2023-04-04T05:19:07.130Z,99.90
2023-04-04T05:24:09.246Z,99.90
2023-04-04T05:29:11.341Z,99.90
2023-04-04T05:34:13.066Z,99.90
2023-04-04T05:39:14.793Z,99.90
2023-04-04T05:44:16.668Z,99.90
2023-04-04T05:49:18.369Z,99.90
2023-04-04T05:54:20.237Z,99.90
2023-04-04T05:59:22.129Z,99.90
2023-04-04T06:04:23.999Z,99.90
2023-04-04T06:09:26.293Z,99.90
2023-04-04T06:14:27.979Z,99.90
2023-04-04T06:19:29.695Z,99.90
2023-04-04T06:24:31.473Z,99.90
2023-04-04T06:29:33.388Z,99.90
2023-04-04T06:34:35.272Z,99.90
2023-04-04T06:39:37.432Z,99.90
2023-04-04T06:44:39.149Z,99.90
2023-04-04T06:49:40.999Z,99.90
2023-04-04T06:54:42.727Z,99.90
2023-04-04T06:59:45.309Z,99.90
2023-04-04T07:04:47.138Z,99.90
2023-04-04T07:09:49.038Z,99.90
2023-04-04T07:14:50.691Z,99.90
2023-04-04T07:19:52.476Z,99.90
2023-04-04T07:24:54.651Z,99.90
2023-04-04T07:29:56.384Z,99.90
2023-04-04T07:34:58.129Z,98.20
2023-04-04T07:39:59.992Z,97.80
2023-04-04T07:45:01.691Z,96.20
2023-04-04T07:50:04.313Z,96.50
2023-04-04T07:55:07.494Z,97.00
2023-04-04T08:00:09.885Z,96.20
2023-04-04T08:05:11.657Z,97.30
2023-04-04T08:10:13.733Z,97.20
2023-04-04T08:15:15.949Z,97.60
2023-04-04T08:20:17.642Z,96.90
2023-04-04T08:25:20.961Z,95.80
2023-04-04T08:30:23.304Z,96.80
2023-04-04T08:35:25.138Z,95.40
2023-04-04T08:40:27.177Z,93.70
2023-04-04T08:45:31.765Z,94.90
2023-04-04T08:50:36.040Z,94.00
2023-04-04T08:55:38.916Z,94.70
2023-04-04T09:00:42.663Z,92.40
2023-04-04T09:05:44.928Z,92.70
2023-04-04T09:10:47.966Z,90.90
2023-04-04T09:15:54.182Z,88.90
2023-04-04T09:20:55.990Z,86.10
2023-04-04T09:31:05.504Z,83.50
2023-04-04T09:36:11.109Z,82.30
2023-04-04T09:41:16.849Z,75.90
2023-04-04T09:46:22.160Z,78.00
2023-04-04T09:51:23.859Z,76.30
2023-04-04T09:56:27.351Z,74.30
2023-04-04T10:01:29.546Z,72.30
2023-04-04T10:06:31.692Z,70.60
2023-04-04T10:11:35.347Z,69.30
2023-04-04T10:16:39.845Z,71.70
2023-04-04T10:21:42.210Z,67.60
2023-04-04T10:26:43.972Z,71.10
2023-04-04T10:31:49.898Z,68.00
2023-04-04T10:36:54.319Z,65.60
2023-04-04T10:41:56.891Z,64.00
2023-04-04T10:47:04.400Z,62.80
2023-04-04T10:52:06.257Z,63.00
2023-04-04T10:57:08.264Z,60.70
2023-04-04T11:02:10.004Z,61.80
2023-04-04T11:07:13.659Z,62.90
2023-04-04T11:12:20.482Z,62.10
2023-04-04T11:17:51.743Z,61.20
2023-04-04T11:23:22.917Z,59.40
2023-04-04T11:28:35.095Z,60.30
2023-04-04T11:33:54.461Z,59.40
2023-04-04T11:38:58.390Z,58.00
2023-04-04T11:44:09.026Z,54.80
2023-04-04T11:49:11.547Z,52.30
2023-04-04T11:54:15.665Z,55.80
2023-04-04T11:59:21.712Z,56.80
2023-04-04T12:04:25.804Z,55.90
2023-04-04T12:09:28.393Z,54.20
2023-04-04T12:14:32.955Z,50.20
2023-04-04T12:19:39.659Z,53.90
2023-04-04T12:24:41.474Z,55.50
2023-04-04T12:29:45.557Z,54.80
2023-04-04T12:34:50.018Z,56.40
2023-04-04T12:39:53.015Z,54.80
2023-04-04T12:44:55.253Z,57.30
2023-04-04T12:49:57.273Z,54.10
2023-04-04T12:55:08.180Z,55.30
2023-04-04T13:00:13.882Z,52.60
2023-04-04T13:05:17.917Z,53.60
2023-04-04T13:10:21.444Z,54.80
2023-04-04T13:15:23.861Z,52.60
2023-04-04T13:20:26.739Z,51.10
2023-04-04T13:25:28.592Z,55.90
2023-04-04T13:30:30.438Z,53.20
2023-04-04T13:35:32.497Z,53.40
2023-04-04T13:40:34.318Z,55.10
2023-04-04T13:45:36.120Z,56.10
2023-04-04T13:50:39.414Z,55.00
2023-04-04T13:55:52.082Z,55.40
2023-04-04T14:01:07.057Z,58.20
2023-04-04T14:06:10.852Z,57.60
2023-04-04T14:11:13.743Z,59.80
2023-04-04T14:16:16.220Z,61.70
2023-04-04T14:21:18.411Z,59.20
2023-04-04T14:26:20.375Z,61.50
2023-04-04T14:31:22.200Z,61.80
2023-04-04T14:36:25.110Z,61.90
2023-04-04T14:41:27.390Z,64.50
2023-04-04T14:46:29.131Z,65.30
2023-04-04T14:51:32.198Z,64.30
2023-04-04T14:56:33.977Z,62.00
2023-04-04T15:01:35.934Z,61.10
2023-04-04T15:06:39.347Z,61.40
2023-04-04T15:11:41.111Z,62.40
2023-04-04T15:16:42.841Z,65.10
2023-04-04T15:21:45.784Z,66.30
2023-04-04T15:26:47.485Z,67.90
2023-04-04T15:31:49.380Z,67.20
2023-04-04T15:36:52.100Z,67.80
2023-04-04T15:41:53.909Z,67.60
2023-04-04T15:46:55.826Z,68.00
2023-04-04T15:51:57.485Z,65.90
2023-04-04T15:56:59.243Z,65.00
2023-04-04T16:02:01.126Z,64.20
2023-04-04T16:07:02.880Z,64.20
2023-04-04T16:12:04.718Z,64.00
2023-04-04T16:17:06.485Z,64.00
2023-04-04T16:22:09.556Z,63.90
2023-04-04T16:27:11.984Z,62.70
2023-04-04T16:32:13.672Z,64.20
2023-04-04T16:37:16.479Z,65.10
2023-04-04T16:42:19.519Z,64.50
2023-04-04T16:47:21.234Z,65.10
2023-04-04T16:52:22.990Z,65.60
2023-04-04T16:57:24.992Z,66.50
2023-04-04T17:02:26.806Z,65.10
2023-04-04T17:07:28.523Z,67.40
2023-04-04T17:12:30.208Z,66.30
2023-04-04T17:17:32.234Z,66.40
2023-04-04T17:22:34.006Z,65.60
2023-04-04T17:27:35.756Z,67.30
2023-04-04T17:32:37.447Z,68.60
2023-04-04T17:37:39.165Z,67.50
2023-04-04T17:42:41.124Z,69.00
2023-04-04T17:47:42.950Z,68.20
2023-04-04T17:52:44.756Z,69.60
2023-04-04T17:57:46.600Z,69.40
2023-04-04T18:02:48.811Z,70.50
2023-04-04T18:07:51.177Z,71.20
2023-04-04T18:12:52.994Z,70.80
2023-04-04T18:17:54.728Z,72.60
2023-04-04T18:22:56.493Z,73.90
2023-04-04T18:27:58.232Z,73.50
2023-04-04T18:33:00.145Z,73.80
2023-04-04T18:38:02.131Z,74.30
2023-04-04T18:43:04.271Z,74.20
2023-04-04T18:48:06.347Z,74.10
2023-04-04T18:53:08.566Z,76.60
2023-04-04T18:58:10.280Z,76.10
2023-04-04T19:03:13.331Z,77.00
2023-04-04T19:08:18.937Z,77.10
2023-04-04T19:13:20.614Z,76.80
2023-04-04T19:18:22.358Z,77.70
2023-04-04T19:23:24.072Z,79.90
2023-04-04T19:28:25.913Z,78.50
2023-04-04T19:33:27.982Z,79.80
2023-04-04T19:38:32.310Z,81.40
2023-04-04T19:43:34.315Z,81.70
2023-04-04T19:48:35.955Z,81.00
2023-04-04T19:53:37.748Z,80.40
2023-04-04T19:58:39.761Z,80.80
2023-04-04T20:03:41.942Z,80.40
2023-04-04T20:08:49.008Z,79.90
2023-04-04T20:13:50.900Z,80.80
2023-04-04T20:18:53.064Z,79.90
2023-04-04T20:24:04.335Z,79.10
2023-04-04T20:29:09.168Z,78.40
2023-04-04T20:34:33.645Z,78.90
2023-04-04T20:39:41.483Z,79.40
2023-04-04T20:44:43.185Z,78.90
2023-04-04T20:49:44.866Z,79.40
2023-04-04T20:54:46.521Z,79.40
2023-04-04T20:59:49.033Z,79.90
2023-04-04T21:04:52.139Z,80.00
2023-04-04T21:09:54.329Z,80.10
2023-04-04T21:14:56.086Z,82.10
2023-04-04T21:19:57.783Z,82.40
2023-04-04T21:24:59.548Z,82.70
2023-04-04T21:30:01.573Z,82.30
2023-04-04T21:35:08.714Z,81.00
2023-04-04T21:40:10.540Z,80.30
2023-04-04T21:45:12.325Z,81.20
2023-04-04T21:50:14.132Z,83.60
2023-04-04T21:55:15.815Z,83.80
2023-04-04T22:00:17.790Z,84.90
2023-04-04T22:05:21.692Z,83.50
2023-04-04T22:10:26.810Z,83.60
2023-04-04T22:15:29.573Z,84.40
2023-04-04T22:20:32.510Z,87.40
2023-04-04T22:25:34.272Z,89.80
2023-04-04T22:30:42.147Z,90.30
2023-04-04T22:35:45.619Z,91.20
2023-04-04T22:40:47.433Z,91.70
2023-04-04T22:45:49.448Z,92.30
2023-04-04T22:50:55.633Z,93.30
2023-04-04T22:56:00.802Z,93.70
2023-04-04T23:01:02.551Z,95.00
2023-04-04T23:06:04.372Z,95.00
2023-04-04T23:11:06.097Z,94.90
2023-04-04T23:16:08.204Z,95.30
2023-04-04T23:21:09.929Z,95.60
2023-04-04T23:26:11.739Z,96.10
2023-04-04T23:31:14.872Z,95.90
2023-04-04T23:36:16.789Z,97.10
2023-04-04T23:41:18.567Z,96.80
2023-04-04T23:46:21.318Z,97.30
2023-04-04T23:51:23.446Z,97.00
2023-04-04T23:56:26.539Z,97.40
